• Join FlightAware (Why Join?)
  • Login
  • US Flag 
02:15PM EDT


 

Airport Tracker/Info


-or-


 

Live Flight TrackerFlight Track Log ✈ QXE2633 ✈ 22-Oct-2013 ✈ KPDX - KSMF

Flight Track Log - Related Links

Times and Time Zones

All times are in EDT time to prevent confusion due to time zone crossing. See the QXE2633 flight status page for this flight to view local times or setup timezone preferences in your user account.

Time Position Orientation Groundspeed Altitude Reporting Facility
EDT Latitude Longitude Course Direction KTS MPH feet Rate Location/Type
06:44PM 45.0780 -122.5142 170° South  Level Estimated
06:45PM 44.9959 -122.4797 163° South  Level FlightAware Approximate
06:46PM 44.9108 -122.4665 172° South  Level Estimated
06:47PM 44.8327 -122.4356 164° South  Level FlightAware Approximate
06:48PM 44.7522 -122.4233 164° South  Level Estimated
06:49PM 44.6716 -122.4112 172° South  Level Estimated
06:50PM 44.5934 -122.3812 165° South  Level FlightAware Approximate
06:51PM 44.5153 -122.3513 165° South  Level FlightAware Approximate
06:52PM 44.4346 -122.3398 169° South  Level Estimated
06:53PM 44.3563 -122.3108 165° South  Level FlightAware Approximate
06:54PM 44.2780 -122.2819 165° South  Level FlightAware Approximate
06:55PM 44.1973 -122.2710 170° South  Level Estimated
06:56PM 44.1179 -122.2488 169° South  Level FlightAware Approximate
06:57PM 44.0384 -122.2266 169° South  Level FlightAware Approximate
06:58PM 43.9590 -122.2045 169° South  Level FlightAware Approximate
06:59PM 43.8795 -122.1824 169° South  Level FlightAware Approximate
07:00PM 43.8000 -122.1604 169° South  Level FlightAware Approximate
07:01PM 43.7206 -122.1385 169° South  Level FlightAware Approximate
07:02PM 43.6411 -122.1166 169° South  Level FlightAware Approximate
07:03PM 43.5616 -122.0948 169° South  Level FlightAware Approximate
07:04PM 43.4822 -122.0730 169° South  Level FlightAware Approximate
07:05PM 43.4027 -122.0513 169° South  Level FlightAware Approximate
07:06PM 43.3232 -122.0297 169° South  Level FlightAware Approximate
07:07PM 43.2437 -122.0081 169° South  Level FlightAware Approximate
07:08PM 43.1642 -121.9865 169° South  Level FlightAware Approximate
07:09PM 43.0847 -121.9651 169° South  Level FlightAware Approximate
07:10PM 43.0052 -121.9436 169° South  Level FlightAware Approximate
07:11PM 42.9257 -121.9223 169° South  Level FlightAware Approximate
07:12PM 42.8462 -121.9009 169° South  Level FlightAware Approximate
07:13PM 42.7644 -121.8791 169° South  Level FlightAware Approximate
07:14PM 42.6825 -121.8572 169° South  Level FlightAware Approximate
07:15PM 42.6007 -121.8355 169° South  Level FlightAware Approximate
07:16PM 42.5188 -121.8138 169° South  Level FlightAware Approximate
07:17PM 42.4370 -121.7921 169° South  Level FlightAware Approximate
07:18PM 42.3551 -121.7705 169° South  Level FlightAware Approximate
07:19PM 42.2733 -121.7490 169° South  Level FlightAware Approximate
07:20PM 42.1914 -121.7275 169° South  Level FlightAware Approximate
07:21PM 42.1088 -121.7167 180° South  Level FlightAware Approximate
07:22PM 42.0254 -121.7167 180° South  Level FlightAware Approximate
07:23PM 41.9420 -121.7167 180° South  Level FlightAware Approximate
07:24PM 41.8586 -121.7167 180° South  Level FlightAware Approximate
07:25PM 41.7752 -121.7167 180° South  Level FlightAware Approximate
07:26PM 41.6918 -121.7167 180° South  Level FlightAware Approximate
07:27PM 41.6085 -121.7167 180° South  Level FlightAware Approximate
07:28PM 41.5251 -121.7167 180° South  Level FlightAware Approximate
07:29PM 41.4417 -121.7167 180° South  Level FlightAware Approximate
07:30PM 41.3583 -121.7167 180° South  Level FlightAware Approximate
07:31PM 41.2749 -121.7167 180° South  Level FlightAware Approximate
07:32PM 41.1915 -121.7167 180° South  Level FlightAware Approximate
07:33PM 41.1081 -121.7167 180° South  Level FlightAware Approximate
07:34PM 41.0253 -121.7116 177° South  Level FlightAware Approximate
07:35PM 40.9416 -121.7065 177° South  Level FlightAware Approximate
07:36PM 40.8577 -121.7014 177° South  Level FlightAware Approximate
07:37PM 40.7739 -121.6963 177° South  Level FlightAware Approximate
07:38PM 40.6902 -121.6912 177° South  Level FlightAware Approximate
07:39PM 40.6063 -121.6861 177° South  Level FlightAware Approximate
07:40PM 40.5225 -121.6810 177° South  Level FlightAware Approximate
07:41PM 40.4388 -121.6760 177° South  Level FlightAware Approximate
07:42PM 40.3549 -121.6710 177° South  Level FlightAware Approximate
07:43PM 40.2714 -121.6637 169° South  Level FlightAware Approximate
07:44PM 40.1885 -121.6500 180° South  Level FlightAware Approximate
07:45PM 40.1047 -121.6500 180° South  Level FlightAware Approximate
07:46PM 40.0211 -121.6421 176° South  Level FlightAware Approximate
07:47PM 39.9375 -121.6338 176° South  Level FlightAware Approximate
07:48PM 39.8538 -121.6299 178° South  Level FlightAware Approximate
07:49PM 39.7700 -121.6262 178° South  Level FlightAware Approximate
07:50PM 39.6862 -121.6226 178° South  Level FlightAware Approximate
07:51PM 39.6025 -121.6189 178° South  Level FlightAware Approximate
07:52PM 39.5187 -121.6167 180° South  Level FlightAware Approximate
07:53PM 39.4351 -121.6118 176° South  Level FlightAware Approximate
07:54PM 39.3515 -121.6035 176° South  Level FlightAware Approximate
07:55PM 39.2678 -121.6000 180° South  Level FlightAware Approximate
07:56PM 39.1840 -121.6000 180° South  Level FlightAware Approximate
07:57PM 39.1002 -121.6000 180° South  Level FlightAware Approximate
07:58PM 39.0169 -121.5881 174° South  Level FlightAware Approximate
07:59PM 38.9333 -121.5833 180° South  Level FlightAware Approximate
08:00PM 38.8495 -121.5833 180° South  Level FlightAware Approximate
08:01PM 38.7657 -121.5833 180° South  Level FlightAware Approximate
08:02PM 38.6954 -121.5908 180° South  Level Estimated
08:03PM 38.6954 -121.5908 180° South  Level Estimated